createdAt,value
2024-03-12T00:00:09.410Z,99.99
2024-03-12T00:01:10.534Z,99.99
2024-03-12T00:02:09.729Z,99.99
2024-03-12T00:03:09.787Z,99.99
2024-03-12T00:04:09.541Z,99.99
2024-03-12T00:05:09.426Z,99.99
2024-03-12T00:06:09.341Z,99.99
2024-03-12T00:07:09.407Z,99.99
2024-03-12T00:08:09.348Z,99.99
2024-03-12T00:09:09.341Z,99.99
2024-03-12T00:10:09.338Z,99.99
2024-03-12T00:11:09.626Z,99.99
2024-03-12T00:12:09.266Z,99.99
2024-03-12T00:13:09.755Z,99.99
2024-03-12T00:14:09.265Z,99.99
2024-03-12T00:15:09.364Z,99.99
2024-03-12T00:16:09.403Z,99.99
2024-03-12T00:17:09.247Z,99.99
2024-03-12T00:18:09.970Z,99.99
2024-03-12T00:19:10.149Z,99.99
2024-03-12T00:20:09.154Z,99.99
2024-03-12T00:21:09.220Z,99.99
2024-03-12T00:22:09.144Z,99.99
2024-03-12T00:23:09.143Z,99.99
2024-03-12T00:24:09.100Z,99.99
2024-03-12T00:25:09.220Z,99.99
2024-03-12T00:26:09.074Z,99.99
2024-03-12T00:27:09.080Z,99.99
2024-03-12T00:28:10.290Z,99.99
2024-03-12T00:29:09.393Z,99.99
2024-03-12T00:30:09.083Z,99.99
2024-03-12T00:31:09.177Z,99.99
2024-03-12T00:32:09.012Z,99.99
2024-03-12T00:33:09.373Z,99.99
2024-03-12T00:34:09.020Z,99.99
2024-03-12T00:35:09.036Z,99.99
2024-03-12T00:36:08.943Z,99.99
2024-03-12T00:37:08.987Z,99.99
2024-03-12T00:38:08.933Z,99.99
2024-03-12T00:39:08.933Z,99.99
2024-03-12T00:40:08.929Z,99.99
2024-03-12T00:41:08.907Z,99.99
2024-03-12T00:42:08.868Z,99.99
2024-03-12T00:43:09.128Z,99.99
2024-03-12T00:44:09.147Z,99.99
2024-03-12T00:45:08.855Z,99.99
2024-03-12T00:46:08.893Z,99.99
2024-03-12T00:47:08.834Z,99.99
2024-03-12T00:48:08.847Z,99.99
2024-03-12T00:49:08.875Z,99.99
2024-03-12T00:50:08.784Z,99.99
2024-03-12T00:51:08.763Z,99.99
2024-03-12T00:52:08.762Z,99.99
2024-03-12T00:53:09.137Z,99.99
2024-03-12T00:54:08.736Z,99.99
2024-03-12T00:55:08.803Z,99.99
2024-03-12T00:56:08.677Z,99.99
2024-03-12T00:57:08.690Z,99.99
2024-03-12T00:58:08.700Z,99.99
2024-03-12T00:59:09.387Z,99.99
2024-03-12T01:00:08.628Z,99.99
2024-03-12T01:01:08.710Z,99.99
2024-03-12T01:02:08.595Z,99.99
2024-03-12T01:03:08.610Z,99.99
2024-03-12T01:04:08.658Z,99.99
2024-03-12T01:05:08.597Z,99.99
2024-03-12T01:06:08.553Z,99.99
2024-03-12T01:07:08.761Z,99.99
2024-03-12T01:08:09.196Z,99.99
2024-03-12T01:09:08.529Z,99.99
2024-03-12T01:10:08.556Z,99.99
2024-03-12T01:11:08.582Z,99.99
2024-03-12T01:12:08.476Z,99.99
2024-03-12T01:13:08.585Z,99.99
2024-03-12T01:14:08.445Z,99.99
2024-03-12T01:15:08.484Z,99.99
2024-03-12T01:16:08.445Z,99.99
2024-03-12T01:17:08.434Z,99.99
2024-03-12T01:18:08.429Z,99.99
2024-03-12T01:19:08.472Z,99.99
2024-03-12T01:20:08.594Z,99.99
2024-03-12T01:21:08.423Z,99.99
2024-03-12T01:22:08.350Z,99.99
2024-03-12T01:23:08.460Z,99.99
2024-03-12T01:24:08.320Z,99.99
2024-03-12T01:25:08.384Z,99.99
2024-03-12T01:26:08.311Z,99.99
2024-03-12T01:27:08.298Z,99.99
2024-03-12T01:28:09.143Z,99.99
2024-03-12T01:29:08.279Z,99.99
2024-03-12T01:30:08.335Z,99.99
2024-03-12T01:31:08.372Z,99.99
2024-03-12T01:32:08.200Z,99.99
2024-03-12T01:33:08.387Z,99.99
2024-03-12T01:34:08.296Z,99.99
2024-03-12T01:35:08.189Z,99.99
2024-03-12T01:36:08.152Z,99.99
2024-03-12T01:37:08.282Z,99.99
2024-03-12T01:38:08.132Z,99.99
2024-03-12T01:39:08.138Z,99.99
2024-03-12T01:40:08.165Z,99.99
2024-03-12T01:41:08.726Z,99.99
2024-03-12T01:42:08.093Z,99.99
2024-03-12T01:43:08.912Z,99.99
2024-03-12T01:44:08.050Z,99.99
2024-03-12T01:45:08.062Z,99.99
2024-03-12T01:46:08.108Z,99.99
2024-03-12T01:47:08.027Z,99.99
2024-03-12T01:48:08.159Z,99.99
2024-03-12T01:49:08.079Z,99.99
2024-03-12T01:50:07.975Z,99.99
2024-03-12T01:51:08.723Z,99.99
2024-03-12T01:52:07.980Z,99.99
2024-03-12T01:53:09.665Z,99.99
2024-03-12T01:54:08.711Z,99.99
2024-03-12T01:55:08.060Z,99.99
2024-03-12T01:56:07.895Z,99.99
2024-03-12T01:57:07.905Z,99.99
2024-03-12T01:58:08.064Z,99.99
2024-03-12T01:59:08.192Z,99.99
2024-03-12T02:00:07.882Z,99.99
2024-03-12T02:01:07.952Z,99.99
2024-03-12T02:02:07.815Z,99.99
2024-03-12T02:03:07.847Z,99.99
2024-03-12T02:04:07.845Z,99.99
2024-03-12T02:05:07.806Z,99.99
2024-03-12T02:06:08.271Z,99.99
2024-03-12T02:07:08.386Z,99.99
2024-03-12T02:08:07.726Z,99.99
2024-03-12T02:09:07.766Z,99.99
2024-03-12T02:10:07.745Z,99.99
2024-03-12T02:11:07.742Z,99.99
2024-03-12T02:12:07.679Z,99.99
2024-03-12T02:13:08.004Z,99.99
2024-03-12T02:14:07.659Z,99.99
2024-03-12T02:15:07.662Z,99.99
2024-03-12T02:16:08.008Z,99.99
2024-03-12T02:17:07.657Z,99.99
2024-03-12T02:18:07.647Z,99.99
2024-03-12T02:19:07.650Z,99.99
2024-03-12T02:20:07.599Z,99.99
2024-03-12T02:21:08.342Z,99.99
2024-03-12T02:22:07.682Z,99.99
2024-03-12T02:23:07.789Z,99.99
2024-03-12T02:24:07.601Z,99.99
2024-03-12T02:25:07.697Z,99.99
2024-03-12T02:26:07.568Z,99.99
2024-03-12T02:27:07.589Z,99.99
2024-03-12T02:28:07.657Z,99.99
2024-03-12T02:29:07.542Z,99.99
2024-03-12T02:30:07.446Z,99.99
2024-03-12T02:31:07.653Z,99.99
2024-03-12T02:32:07.492Z,99.99
2024-03-12T02:33:07.525Z,99.99
2024-03-12T02:34:07.530Z,99.99
2024-03-12T02:35:08.294Z,99.99
2024-03-12T02:36:07.374Z,99.99
2024-03-12T02:37:08.428Z,99.99
2024-03-12T02:38:07.403Z,99.99
2024-03-12T02:39:07.342Z,99.99
2024-03-12T02:40:07.364Z,99.99
2024-03-12T02:41:08.272Z,99.99
2024-03-12T02:42:07.285Z,99.99
2024-03-12T02:43:07.731Z,99.99
2024-03-12T02:44:07.274Z,99.99
2024-03-12T02:45:07.272Z,99.99
2024-03-12T02:46:08.067Z,99.99
2024-03-12T02:47:07.273Z,99.98
2024-03-12T02:48:07.318Z,99.87
2024-03-12T02:49:07.335Z,99.87
2024-03-12T02:50:07.660Z,99.87
2024-03-12T02:51:07.262Z,99.87
2024-03-12T02:52:07.257Z,99.77
2024-03-12T02:53:07.196Z,99.77
2024-03-12T02:54:07.136Z,99.77
2024-03-12T02:55:07.209Z,99.87
2024-03-12T02:56:07.110Z,99.87
2024-03-12T02:57:07.111Z,99.77
2024-03-12T02:58:07.135Z,99.66
2024-03-12T02:59:07.094Z,99.66
2024-03-12T03:00:07.069Z,99.66
2024-03-12T03:01:07.235Z,99.46
2024-03-12T03:02:07.024Z,99.46
2024-03-12T03:03:07.055Z,99.46
2024-03-12T03:04:07.061Z,99.35
2024-03-12T03:05:07.036Z,99.35
2024-03-12T03:06:06.995Z,99.35
2024-03-12T03:07:07.106Z,99.46
2024-03-12T03:08:06.959Z,99.46
2024-03-12T03:09:06.981Z,99.56
2024-03-12T03:10:07.043Z,99.46
2024-03-12T03:11:06.968Z,99.41
2024-03-12T03:12:06.903Z,99.46
2024-03-12T03:13:07.027Z,99.46
2024-03-12T03:14:06.892Z,99.56
2024-03-12T03:15:07.799Z,99.56
2024-03-12T03:16:07.846Z,99.62
2024-03-12T03:17:06.875Z,99.52
2024-03-12T03:18:06.844Z,99.52
2024-03-12T03:19:06.929Z,99.52
2024-03-12T03:20:06.799Z,99.41
2024-03-12T03:21:06.798Z,99.31
2024-03-12T03:22:06.923Z,99.31
2024-03-12T03:23:07.008Z,99.21
2024-03-12T03:24:07.032Z,99.00
2024-03-12T03:25:06.935Z,99.00
2024-03-12T03:26:06.729Z,99.00
2024-03-12T03:27:06.817Z,99.00
2024-03-12T03:28:06.735Z,98.90
2024-03-12T03:29:06.694Z,98.90
2024-03-12T03:30:06.664Z,98.90
2024-03-12T03:31:06.772Z,98.90
2024-03-12T03:32:06.642Z,98.90
2024-03-12T03:33:06.715Z,98.79
2024-03-12T03:34:06.674Z,98.79
2024-03-12T03:35:06.609Z,98.79
2024-03-12T03:36:06.585Z,98.79
2024-03-12T03:37:06.672Z,98.69
2024-03-12T03:38:07.407Z,98.69
2024-03-12T03:39:07.047Z,98.69
2024-03-12T03:40:06.577Z,98.69
2024-03-12T03:41:06.534Z,98.69
2024-03-12T03:42:06.500Z,98.58
2024-03-12T03:43:06.683Z,98.58
2024-03-12T03:44:06.474Z,98.49
2024-03-12T03:45:06.479Z,98.49
2024-03-12T03:46:06.506Z,98.49
2024-03-12T03:47:06.498Z,98.49
2024-03-12T03:48:06.459Z,98.58
2024-03-12T03:49:06.562Z,98.58
2024-03-12T03:50:06.416Z,98.69
2024-03-12T03:51:06.395Z,98.58
2024-03-12T03:52:06.378Z,98.58
2024-03-12T03:53:07.189Z,98.58
2024-03-12T03:54:07.339Z,98.69
2024-03-12T03:55:07.338Z,98.69
2024-03-12T03:56:06.314Z,98.69
2024-03-12T03:57:07.349Z,98.75
2024-03-12T03:58:06.360Z,98.79
2024-03-12T03:59:06.297Z,98.79
2024-03-12T04:00:06.294Z,98.79
2024-03-12T04:01:06.395Z,98.79
2024-03-12T04:02:06.317Z,98.69
2024-03-12T04:03:06.246Z,98.79
2024-03-12T04:04:06.283Z,98.69
2024-03-12T04:05:06.200Z,98.69
2024-03-12T04:06:06.217Z,98.69
2024-03-12T04:07:06.423Z,98.69
2024-03-12T04:08:06.173Z,98.69
2024-03-12T04:09:06.561Z,98.69
2024-03-12T04:10:06.618Z,98.79
2024-03-12T04:11:06.200Z,98.90
2024-03-12T04:12:06.131Z,98.79
2024-03-12T04:13:06.170Z,98.79
2024-03-12T04:14:06.093Z,98.79
2024-03-12T04:15:06.064Z,98.79
2024-03-12T04:16:06.133Z,98.79
2024-03-12T04:17:06.048Z,98.79
2024-03-12T04:18:06.101Z,98.69
2024-03-12T04:19:06.407Z,98.69
2024-03-12T04:20:06.021Z,98.69
2024-03-12T04:21:05.992Z,98.69
2024-03-12T04:22:06.067Z,98.69
2024-03-12T04:23:05.980Z,98.79
2024-03-12T04:24:05.972Z,98.79
2024-03-12T04:25:06.969Z,98.79
2024-03-12T04:26:05.938Z,98.79
2024-03-12T04:27:05.924Z,98.79
2024-03-12T04:28:05.996Z,99.10
2024-03-12T04:29:05.874Z,99.31
2024-03-12T04:30:05.949Z,99.21
2024-03-12T04:31:05.933Z,99.31
2024-03-12T04:32:05.865Z,99.31
2024-03-12T04:33:05.907Z,99.31
2024-03-12T04:34:05.879Z,99.21
2024-03-12T04:35:05.908Z,99.21
2024-03-12T04:36:05.807Z,99.10
2024-03-12T04:37:05.930Z,99.10
2024-03-12T04:38:05.782Z,99.10
2024-03-12T04:39:09.684Z,99.00
2024-03-12T04:40:05.847Z,99.00
2024-03-12T04:41:05.896Z,99.00
2024-03-12T04:42:05.727Z,99.00
2024-03-12T04:43:05.838Z,99.00
2024-03-12T04:44:05.715Z,99.00
2024-03-12T04:45:05.665Z,99.00
2024-03-12T04:46:05.731Z,99.00
2024-03-12T04:47:05.647Z,99.00
2024-03-12T04:48:05.746Z,99.10
2024-03-12T04:49:05.719Z,99.10
2024-03-12T04:50:05.706Z,99.10
2024-03-12T04:51:05.592Z,99.10
2024-03-12T04:52:05.668Z,99.10
2024-03-12T04:53:05.589Z,98.96
2024-03-12T04:54:05.596Z,99.10
2024-03-12T04:55:05.637Z,99.06
2024-03-12T04:56:05.539Z,98.85
2024-03-12T04:57:05.510Z,98.85
2024-03-12T04:58:05.570Z,98.85
2024-03-12T04:59:05.472Z,98.85
2024-03-12T05:00:05.499Z,98.85
2024-03-12T05:01:05.546Z,98.75
2024-03-12T05:02:05.499Z,98.75
2024-03-12T05:03:05.469Z,98.75
2024-03-12T05:04:12.323Z,98.75
2024-03-12T05:05:06.415Z,98.65
2024-03-12T05:06:05.412Z,98.65
2024-03-12T05:07:05.471Z,98.54
2024-03-12T05:08:05.399Z,98.54
2024-03-12T05:09:06.251Z,98.54
2024-03-12T05:10:06.393Z,98.54
2024-03-12T05:11:05.999Z,98.54
2024-03-12T05:12:05.340Z,98.65
2024-03-12T05:13:05.446Z,98.65
2024-03-12T05:14:05.315Z,98.65
2024-03-12T05:15:05.271Z,98.65
2024-03-12T05:16:06.169Z,98.54
2024-03-12T05:17:05.241Z,98.65
2024-03-12T05:18:05.444Z,98.65
2024-03-12T05:19:05.312Z,98.65
2024-03-12T05:20:05.372Z,98.65
2024-03-12T05:21:05.192Z,98.54
2024-03-12T05:22:05.283Z,98.65
2024-03-12T05:23:05.119Z,98.75
2024-03-12T05:24:05.131Z,98.75
2024-03-12T05:25:05.282Z,98.65
2024-03-12T05:26:05.131Z,98.65
2024-03-12T05:27:05.632Z,98.65
2024-03-12T05:28:05.142Z,98.65
2024-03-12T05:29:05.039Z,98.65
2024-03-12T05:30:05.367Z,98.65
2024-03-12T05:31:05.065Z,98.75
2024-03-12T05:32:05.016Z,98.75
2024-03-12T05:33:05.013Z,98.85
2024-03-12T05:34:05.012Z,98.96
2024-03-12T05:35:04.952Z,98.96
2024-03-12T05:36:04.972Z,99.06
2024-03-12T05:37:05.098Z,99.06
2024-03-12T05:38:05.968Z,98.96
2024-03-12T05:39:04.923Z,98.96
2024-03-12T05:40:04.957Z,98.96
2024-03-12T05:41:05.781Z,99.06
2024-03-12T05:42:05.020Z,99.01
2024-03-12T05:43:05.028Z,99.01
2024-03-12T05:44:05.140Z,99.01
2024-03-12T05:45:04.851Z,98.91
2024-03-12T05:46:04.886Z,98.91
2024-03-12T05:47:04.798Z,98.80
2024-03-12T05:48:04.841Z,98.80
2024-03-12T05:49:04.820Z,98.91
2024-03-12T05:50:05.050Z,98.80
2024-03-12T05:51:04.754Z,98.80
2024-03-12T05:52:04.839Z,98.80
2024-03-12T05:53:05.623Z,98.80
2024-03-12T05:54:04.734Z,98.70
2024-03-12T05:55:05.738Z,98.70
2024-03-12T05:56:04.716Z,98.60
2024-03-12T05:57:04.735Z,98.60
2024-03-12T05:58:04.887Z,98.60
2024-03-12T05:59:04.645Z,98.50
2024-03-12T06:00:04.864Z,98.50
2024-03-12T06:01:04.737Z,98.50
2024-03-12T06:02:04.665Z,98.60
2024-03-12T06:03:04.586Z,98.60
2024-03-12T06:04:04.613Z,98.60
2024-03-12T06:05:04.571Z,98.60
2024-03-12T06:06:04.575Z,98.70
2024-03-12T06:07:04.639Z,98.70
2024-03-12T06:08:04.572Z,98.70
2024-03-12T06:09:04.514Z,98.70
2024-03-12T06:10:05.296Z,98.70
2024-03-12T06:11:04.602Z,98.70
2024-03-12T06:12:04.507Z,98.70
2024-03-12T06:13:05.333Z,98.80
2024-03-12T06:14:04.707Z,98.80
2024-03-12T06:15:04.427Z,98.70
2024-03-12T06:16:04.501Z,98.70
2024-03-12T06:17:04.411Z,98.70
2024-03-12T06:18:04.456Z,98.60
2024-03-12T06:19:04.430Z,98.60
2024-03-12T06:20:05.602Z,98.60
2024-03-12T06:21:05.292Z,98.60
2024-03-12T06:22:04.456Z,98.60
2024-03-12T06:23:04.352Z,98.60
2024-03-12T06:24:04.335Z,98.50
2024-03-12T06:25:04.353Z,98.50
2024-03-12T06:26:04.321Z,98.50
2024-03-12T06:27:04.263Z,98.50
2024-03-12T06:28:04.715Z,98.60
2024-03-12T06:29:04.243Z,98.60
2024-03-12T06:30:04.304Z,98.60
2024-03-12T06:31:04.318Z,98.60
2024-03-12T06:32:04.232Z,98.60
2024-03-12T06:33:04.205Z,98.60
2024-03-12T06:34:04.258Z,98.45
2024-03-12T06:35:04.168Z,98.55
2024-03-12T06:36:04.207Z,98.55
2024-03-12T06:37:04.315Z,98.55
2024-03-12T06:38:04.152Z,98.66
2024-03-12T06:39:04.151Z,98.60
2024-03-12T06:40:04.255Z,98.55
2024-03-12T06:41:04.089Z,98.55
2024-03-12T06:42:07.648Z,98.55
2024-03-12T06:43:04.314Z,98.66
2024-03-12T06:44:04.179Z,98.66
2024-03-12T06:45:04.036Z,98.66
2024-03-12T06:46:04.211Z,98.66
2024-03-12T06:47:04.003Z,98.76
2024-03-12T06:48:04.045Z,99.07
2024-03-12T06:49:04.984Z,98.97
2024-03-12T06:50:05.603Z,98.86
2024-03-12T06:51:04.139Z,98.71
2024-03-12T06:52:04.009Z,98.76
2024-03-12T06:53:03.922Z,98.86
2024-03-12T06:54:03.938Z,98.76
2024-03-12T06:55:03.974Z,98.66
2024-03-12T06:56:07.807Z,98.61
2024-03-12T06:57:03.901Z,98.66
2024-03-12T06:58:04.363Z,99.02
2024-03-12T06:59:03.863Z,99.43
2024-03-12T07:00:03.869Z,99.99
2024-03-12T07:01:03.905Z,99.99
2024-03-12T07:02:03.874Z,99.99
2024-03-12T07:03:03.795Z,99.99
2024-03-12T07:04:03.828Z,99.99
2024-03-12T07:05:03.762Z,99.99
2024-03-12T07:06:04.186Z,99.99
2024-03-12T07:07:03.858Z,99.99
2024-03-12T07:08:03.746Z,99.99
2024-03-12T07:09:03.716Z,99.91
2024-03-12T07:10:03.796Z,99.81
2024-03-12T07:11:03.742Z,99.60
2024-03-12T07:12:04.166Z,99.60
2024-03-12T07:13:03.797Z,99.60
2024-03-12T07:14:03.684Z,99.51
2024-03-12T07:15:03.665Z,99.60
2024-03-12T07:16:03.693Z,99.81
2024-03-12T07:17:04.085Z,99.91
2024-03-12T07:18:03.675Z,99.99
2024-03-12T07:19:03.627Z,99.99
2024-03-12T07:20:03.598Z,99.99
2024-03-12T07:21:03.549Z,99.99
2024-03-12T07:22:03.638Z,99.99
2024-03-12T07:23:03.549Z,99.99
2024-03-12T07:24:03.560Z,99.99
2024-03-12T07:25:03.602Z,99.99
2024-03-12T07:26:03.505Z,99.99
2024-03-12T07:27:03.471Z,99.91
2024-03-12T07:28:03.539Z,99.91
2024-03-12T07:29:03.801Z,99.60
2024-03-12T07:30:03.492Z,99.40
2024-03-12T07:31:03.470Z,99.25
2024-03-12T07:32:03.447Z,98.94
2024-03-12T07:33:03.420Z,98.84
2024-03-12T07:34:03.464Z,98.74
2024-03-12T07:35:03.382Z,98.59
2024-03-12T07:36:03.390Z,98.49
2024-03-12T07:37:03.441Z,97.97
2024-03-12T07:38:03.380Z,98.18
2024-03-12T07:39:03.339Z,97.87
2024-03-12T07:40:03.381Z,97.56
2024-03-12T07:41:03.301Z,97.45
2024-03-12T07:42:03.309Z,97.56
2024-03-12T07:43:03.384Z,97.45
2024-03-12T07:44:04.189Z,97.45
2024-03-12T07:45:04.120Z,97.10
2024-03-12T07:46:03.316Z,97.00
2024-03-12T07:47:03.225Z,96.94
2024-03-12T07:48:03.296Z,96.84
2024-03-12T07:49:03.298Z,96.94
2024-03-12T07:50:03.202Z,97.10
2024-03-12T07:51:03.608Z,97.00
2024-03-12T07:52:03.279Z,96.69
2024-03-12T07:53:03.134Z,96.69
2024-03-12T07:54:03.144Z,97.00
2024-03-12T07:55:03.241Z,96.48
2024-03-12T07:56:03.122Z,96.80
2024-03-12T07:57:03.104Z,96.69
2024-03-12T07:58:03.186Z,96.59
2024-03-12T07:59:03.213Z,96.69
2024-03-12T08:00:03.060Z,96.69
2024-03-12T08:01:03.177Z,96.90
2024-03-12T08:02:03.130Z,96.59
2024-03-12T08:03:03.018Z,96.59
2024-03-12T08:04:03.045Z,96.69
2024-03-12T08:05:02.995Z,96.59
2024-03-12T08:06:02.982Z,96.59
2024-03-12T08:07:03.011Z,96.48
2024-03-12T08:08:02.966Z,96.39
2024-03-12T08:09:02.934Z,96.48
2024-03-12T08:10:02.998Z,96.69
2024-03-12T08:11:02.957Z,96.90
2024-03-12T08:12:02.945Z,96.43
2024-03-12T08:13:02.992Z,96.90
2024-03-12T08:14:02.894Z,96.48
2024-03-12T08:15:03.273Z,96.48
2024-03-12T08:16:03.617Z,96.59
2024-03-12T08:17:03.020Z,96.90
2024-03-12T08:18:12.647Z,96.90
2024-03-12T08:19:03.923Z,96.18
2024-03-12T08:20:02.785Z,96.18
2024-03-12T08:21:02.793Z,96.48
2024-03-12T08:22:03.689Z,96.59
2024-03-12T08:23:02.823Z,96.28
2024-03-12T08:24:02.731Z,96.44
2024-03-12T08:25:02.876Z,96.23
2024-03-12T08:26:02.777Z,96.23
2024-03-12T08:27:02.708Z,95.72
2024-03-12T08:28:03.588Z,95.27
2024-03-12T08:29:02.683Z,94.76
2024-03-12T08:30:03.637Z,94.76
2024-03-12T08:31:08.750Z,94.59
2024-03-12T08:32:03.784Z,94.65
2024-03-12T08:33:02.670Z,94.65
2024-03-12T08:34:02.644Z,94.65
2024-03-12T08:35:02.649Z,94.65
2024-03-12T08:36:02.599Z,94.14
2024-03-12T08:37:02.672Z,94.04
2024-03-12T08:38:02.564Z,94.14
2024-03-12T08:39:03.288Z,94.04
2024-03-12T08:40:03.515Z,94.51
2024-03-12T08:41:02.552Z,94.71
2024-03-12T08:42:02.499Z,94.56
2024-03-12T08:43:05.139Z,93.38
2024-03-12T08:44:02.471Z,93.79
2024-03-12T08:45:02.476Z,94.92
2024-03-12T08:46:02.613Z,95.37
2024-03-12T08:47:02.640Z,96.19
2024-03-12T08:48:02.453Z,96.50
2024-03-12T08:49:02.531Z,96.81
2024-03-12T08:50:02.790Z,97.27
2024-03-12T08:51:02.408Z,97.57
2024-03-12T08:52:02.388Z,97.88
2024-03-12T08:53:02.391Z,97.99
2024-03-12T08:54:02.356Z,98.19
2024-03-12T08:55:02.975Z,98.50
2024-03-12T08:56:02.375Z,99.01
2024-03-12T08:57:02.355Z,99.68
2024-03-12T08:58:02.357Z,99.38
2024-03-12T08:59:02.291Z,99.27
2024-03-12T09:00:02.303Z,99.17
2024-03-12T09:01:03.221Z,97.53
2024-03-12T09:02:02.456Z,97.53
2024-03-12T09:03:02.285Z,97.94
2024-03-12T09:04:02.366Z,98.14
2024-03-12T09:05:02.213Z,98.25
2024-03-12T09:06:02.360Z,98.60
2024-03-12T09:07:02.270Z,98.80
2024-03-12T09:08:02.145Z,98.91
2024-03-12T09:09:02.192Z,99.42
2024-03-12T09:10:02.331Z,99.52
2024-03-12T09:11:02.168Z,99.32
2024-03-12T09:12:02.110Z,98.91
2024-03-12T09:13:02.192Z,99.37
2024-03-12T09:14:02.133Z,99.77
2024-03-12T09:15:02.083Z,99.98
2024-03-12T09:16:02.093Z,99.26
2024-03-12T09:17:02.987Z,98.96
2024-03-12T09:18:02.109Z,99.93
2024-03-12T09:19:02.142Z,99.99
2024-03-12T09:20:02.028Z,99.99
2024-03-12T09:21:02.024Z,99.99
2024-03-12T09:22:01.986Z,99.99
2024-03-12T09:23:01.966Z,99.99
2024-03-12T09:24:02.845Z,99.99
2024-03-12T09:25:02.061Z,99.99
2024-03-12T09:26:02.858Z,99.99
2024-03-12T09:27:01.940Z,99.99
2024-03-12T09:28:01.902Z,99.99
2024-03-12T09:29:01.970Z,99.99
2024-03-12T09:30:01.996Z,99.99
2024-03-12T09:31:03.679Z,99.99
2024-03-12T09:32:02.803Z,99.99
2024-03-12T09:33:02.144Z,99.99
2024-03-12T09:34:02.059Z,99.99
2024-03-12T09:35:02.158Z,99.99
2024-03-12T09:36:01.820Z,99.99
2024-03-12T09:37:01.851Z,99.99
2024-03-12T09:38:01.755Z,99.99
2024-03-12T09:39:01.791Z,99.99
2024-03-12T09:40:01.815Z,99.99
2024-03-12T09:41:01.743Z,99.99
2024-03-12T09:42:01.694Z,99.99
2024-03-12T09:43:01.804Z,99.99
2024-03-12T09:44:03.031Z,99.99
2024-03-12T09:45:01.686Z,99.99
2024-03-12T09:46:01.697Z,99.99
2024-03-12T09:47:01.725Z,99.99
2024-03-12T09:48:02.567Z,99.99
2024-03-12T09:49:02.469Z,99.99
2024-03-12T09:50:03.689Z,99.99
2024-03-12T09:51:01.623Z,99.99
2024-03-12T09:52:01.872Z,99.99
2024-03-12T09:53:01.580Z,99.99
2024-03-12T09:54:01.550Z,99.99
2024-03-12T09:55:01.700Z,99.99
2024-03-12T09:57:01.542Z,99.99
2024-03-12T09:58:01.565Z,99.99
2024-03-12T09:59:01.778Z,99.99
2024-03-12T10:00:01.493Z,99.99
2024-03-12T10:01:01.580Z,99.99
2024-03-12T10:02:03.027Z,99.99
2024-03-12T10:03:02.403Z,99.99
2024-03-12T10:04:02.349Z,99.99
2024-03-12T10:05:01.443Z,99.99
2024-03-12T10:06:02.353Z,99.99
2024-03-12T10:07:02.112Z,99.99
2024-03-12T10:08:04.683Z,99.99
2024-03-12T10:09:02.368Z,99.99
2024-03-12T10:10:01.506Z,99.99
2024-03-12T10:11:01.390Z,99.99
2024-03-12T10:12:01.328Z,99.99
2024-03-12T10:13:01.361Z,99.99
2024-03-12T10:14:02.015Z,99.99
2024-03-12T10:15:01.305Z,99.99
2024-03-12T10:16:01.727Z,99.99
2024-03-12T10:17:01.296Z,99.99
2024-03-12T10:18:01.738Z,99.99
2024-03-12T10:19:01.741Z,99.99
2024-03-12T10:20:04.436Z,99.99
2024-03-12T10:21:01.205Z,99.99
2024-03-12T10:22:01.251Z,99.99
2024-03-12T10:23:01.185Z,99.99
2024-03-12T10:24:01.155Z,99.99
2024-03-12T10:25:01.191Z,99.99
2024-03-12T10:26:02.572Z,99.46
2024-03-12T10:27:01.145Z,99.99
2024-03-12T10:28:07.572Z,99.41
2024-03-12T10:29:02.406Z,99.31
2024-03-12T10:30:01.069Z,99.21
2024-03-12T10:31:01.184Z,98.18
2024-03-12T10:32:01.811Z,99.00
2024-03-12T10:33:01.078Z,97.87
2024-03-12T10:34:01.982Z,97.45
2024-03-12T10:35:01.901Z,97.00
2024-03-12T10:36:01.025Z,97.00
2024-03-12T10:37:01.051Z,96.69
2024-03-12T10:38:01.624Z,97.10
2024-03-12T10:39:00.994Z,97.00
2024-03-12T10:40:01.013Z,96.18
2024-03-12T10:41:00.980Z,96.18
2024-03-12T10:42:01.581Z,96.55
2024-03-12T10:43:01.970Z,95.21
2024-03-12T10:44:01.898Z,95.31
2024-03-12T10:45:00.920Z,95.10
2024-03-12T10:46:00.999Z,94.70
2024-03-12T10:47:00.867Z,95.10
2024-03-12T10:48:00.875Z,95.05
2024-03-12T10:49:01.842Z,95.56
2024-03-12T10:50:01.754Z,95.56
2024-03-12T10:51:00.980Z,95.25
2024-03-12T10:52:00.802Z,95.77
2024-03-12T10:53:00.799Z,95.93
2024-03-12T10:54:00.769Z,96.08
2024-03-12T10:55:05.942Z,96.03
2024-03-12T10:56:03.900Z,95.42
2024-03-12T10:57:00.735Z,95.42
2024-03-12T10:58:00.738Z,95.46
2024-03-12T10:59:00.762Z,95.62
2024-03-12T11:00:00.961Z,95.67
2024-03-12T11:01:00.810Z,95.83
2024-03-12T11:02:00.799Z,96.08
2024-03-12T11:03:00.667Z,96.55
2024-03-12T11:04:00.808Z,96.65
2024-03-12T11:05:01.342Z,95.62
2024-03-12T11:06:01.370Z,96.18
2024-03-12T11:07:00.671Z,96.08
2024-03-12T11:08:00.577Z,96.48
2024-03-12T11:09:00.748Z,96.28
2024-03-12T11:10:00.601Z,96.18
2024-03-12T11:11:00.608Z,96.59
2024-03-12T11:12:00.528Z,97.00
2024-03-12T11:13:00.658Z,95.87
2024-03-12T11:14:00.501Z,95.87
2024-03-12T11:15:00.502Z,95.77
2024-03-12T11:16:00.484Z,96.28
2024-03-12T11:17:00.572Z,96.80
2024-03-12T11:18:00.513Z,96.48
2024-03-12T11:19:00.497Z,96.02
2024-03-12T11:20:02.951Z,95.92
2024-03-12T11:21:01.305Z,96.53
2024-03-12T11:22:00.439Z,97.15
2024-03-12T11:23:00.391Z,96.73
2024-03-12T11:24:00.353Z,96.53
2024-03-12T11:25:00.440Z,96.73
2024-03-12T11:26:00.432Z,96.64
2024-03-12T11:27:00.350Z,96.94
2024-03-12T11:28:00.361Z,96.94
2024-03-12T11:29:01.323Z,96.73
2024-03-12T11:30:00.296Z,97.05
2024-03-12T11:31:00.403Z,96.64
2024-03-12T11:32:00.283Z,96.94
2024-03-12T11:33:00.295Z,97.25
2024-03-12T11:34:00.395Z,97.15
2024-03-12T11:35:00.243Z,97.56
2024-03-12T11:36:00.217Z,97.81
2024-03-12T11:37:00.377Z,97.81
2024-03-12T11:38:00.363Z,98.12
2024-03-12T11:39:00.250Z,98.43
2024-03-12T11:40:00.278Z,98.33
2024-03-12T11:41:00.194Z,98.12
2024-03-12T11:42:00.171Z,97.91
2024-03-12T11:43:00.251Z,98.12
2024-03-12T11:44:00.142Z,98.53
2024-03-12T11:45:00.191Z,98.53
2024-03-12T11:46:00.097Z,98.74
2024-03-12T11:47:00.090Z,99.05
2024-03-12T11:48:00.116Z,98.63
2024-03-12T11:49:00.846Z,98.33
2024-03-12T11:50:03.325Z,98.53
2024-03-12T11:51:01.134Z,98.43
2024-03-12T11:52:00.866Z,98.28
2024-03-12T11:53:00.014Z,98.12
2024-03-12T11:53:59.977Z,98.22
2024-03-12T11:55:00.092Z,98.84
2024-03-12T11:56:01.361Z,98.94
2024-03-12T11:56:59.963Z,98.84
2024-03-12T11:57:59.946Z,98.94
2024-03-12T11:59:05.599Z,99.09
2024-03-12T12:00:00.933Z,99.51
2024-03-12T12:00:59.964Z,99.71
2024-03-12T12:02:02.689Z,99.91
2024-03-12T12:02:59.869Z,99.99
2024-03-12T12:03:59.908Z,99.99
2024-03-12T12:04:59.855Z,99.99
2024-03-12T12:06:00.830Z,99.99
2024-03-12T12:07:00.781Z,99.99
2024-03-12T12:07:59.805Z,99.99
2024-03-12T12:09:01.094Z,99.99
2024-03-12T12:09:59.796Z,99.99
2024-03-12T12:10:59.841Z,99.40
2024-03-12T12:11:59.788Z,99.71
2024-03-12T12:12:59.781Z,99.99
2024-03-12T12:14:01.490Z,99.51
2024-03-12T12:14:59.722Z,99.66
2024-03-12T12:15:59.719Z,99.56
2024-03-12T12:17:00.332Z,99.66
2024-03-12T12:17:59.701Z,99.56
2024-03-12T12:18:59.726Z,98.38
2024-03-12T12:19:59.639Z,98.18
2024-03-12T12:20:59.648Z,98.49
2024-03-12T12:22:00.358Z,98.74
2024-03-12T12:23:00.052Z,99.25
2024-03-12T12:24:00.479Z,99.05
2024-03-12T12:24:59.633Z,98.94
2024-03-12T12:25:59.615Z,99.25
2024-03-12T12:26:59.597Z,99.35
2024-03-12T12:27:59.550Z,99.35
2024-03-12T12:28:59.549Z,99.25
2024-03-12T12:30:00.578Z,99.51
2024-03-12T12:30:59.538Z,99.30
2024-03-12T12:31:59.487Z,99.35
2024-03-12T12:32:59.491Z,99.51
2024-03-12T12:33:59.574Z,99.60
2024-03-12T12:34:59.436Z,99.71
2024-03-12T12:35:59.497Z,99.60
2024-03-12T12:37:00.492Z,99.60
2024-03-12T12:38:00.250Z,99.40
2024-03-12T12:39:03.439Z,99.60
2024-03-12T12:39:59.458Z,99.81
2024-03-12T12:40:59.856Z,99.81
2024-03-12T12:41:59.419Z,99.71
2024-03-12T12:42:59.472Z,99.99
2024-03-12T12:43:59.417Z,99.99
2024-03-12T12:44:59.393Z,99.91
2024-03-12T12:45:59.675Z,99.99
2024-03-12T12:46:59.326Z,99.19
2024-03-12T12:48:00.110Z,99.09
2024-03-12T12:48:59.281Z,98.88
2024-03-12T12:49:59.262Z,98.88
2024-03-12T12:50:59.231Z,99.09
2024-03-12T12:51:59.357Z,99.09
2024-03-12T12:52:59.268Z,98.99